NIEUW!!! Volg onze weer- en natuurfoto's op Instagram @ weerstationmaaseik.be

WS Maaseik 1 Meer informatie WS Maaseik 1


WS Maaseik 2 Meer informatie WS Maaseik 2


Regen radar Meer informatie rain snow radar


Bezoek onze andere website:

Vorige versie
weerstation Maaseik


Bezoek ook eens deze sites:

Weerstation Geleen

Weerstation Luyksgestel



Het weer levert geen direct gevaar op.    Er zijn geen waarschuwingen afgegeven.

METAR rapporten vliegvelden

   
EBBR - Brussels International Airport, Belgium
Afstand tot: W 14 km
Gewijzigd: 21-08-2019 20:20
Helder  
Helder  
   Wind: Oosten 5.6 km/h
Wind: Oosten 5.6 km/h
Temperatuur: 20°C
Dauwpunt: 10°C
Vochtigheid: 53%
Barometer: 1026 hPa
Zicht: meer dan 10 km
Bewolking: Helder ft
EBBR 211820Z 08003KT CAVOK 20/10 Q1026 NOSIG
EBBE - Beauvechain (Bevekom), Belgium
Afstand tot: ZZO 17 km
Gewijzigd: 21-08-2019 19:55
Helder  
Helder  
   Wind: NNO 5.6 km/h
Wind: NNO 5.6 km/h
Temperatuur: 19°C
Dauwpunt: 11°C
Vochtigheid: 60%
Barometer: 1026 hPa
Bewolking: Clear
Zicht: meer dan 10 km
Bewolking: Helder ft
EBBE 211755Z AUTO 03003KT 9999 NCD 19/11 Q1026 BLU
EBDT - Schaffen, Belgium
Afstand tot: ONO 29 km
Gewijzigd: 21-08-2019 19:55
Helder  
Helder  
   Wind: varieert 1.9 km/h
Wind: varieert 1.9 km/h
Temperatuur: 22°C
Dauwpunt: 10°C
Vochtigheid: 47%
Barometer: 1026 hPa
Bewolking: Clear
Zicht: meer dan 10 km
Bewolking: Helder ft
EBDT 211755Z AUTO VRB01KT 9999 NCD 22/10 Q1026 BLU
EBAW - Antwerp/Deurne, Belgium
Afstand tot: NNW 38 km
Gewijzigd: 21-08-2019 20:20
Helder  
Helder  
   Wind: ONO 3.7 km/h
Wind: ONO 3.7 km/h
Temperatuur: 20°C
Dauwpunt: 10°C
Vochtigheid: 53%
Barometer: 1026 hPa
Zicht: meer dan 10 km
Bewolking: Helder ft
EBAW 211820Z 07002KT CAVOK 20/10 Q1026 NOSIG
EBCI - Charleroi/Gosselies, Belgium
Afstand tot: ZZW 51 km
Gewijzigd: 21-08-2019 20:20
Helder  
Helder  
   Wind: NNO 11.1 km/h
Wind: NNO 11.1 km/h
Temperatuur: 19°C
Dauwpunt: 8°C
Vochtigheid: 49%
Barometer: 1026 hPa
Zicht: meer dan 10 km
Bewolking: Helder ft
EBCI 211820Z 03006KT CAVOK 19/08 Q1026 NOSIG
EBLG - Bierset/Liege, Belgium
Afstand tot: OZO 60 km
Gewijzigd: 21-08-2019 20:20
Helder  
Helder  
   Wind: NNO 7.4 km/h
Wind: NNO 7.4 km/h
Temperatuur: 19°C
Dauwpunt: 11°C
Vochtigheid: 60%
Barometer: 1026 hPa
Zicht: meer dan 10 km
Bewolking: Helder ft
EBLG 211820Z 02004KT CAVOK 19/11 Q1026 NOSIG

Script ontwikkeld door  Saratoga-weather.org Aangepast voor de template door  Weerstation Leuven

U vindt ons ook hier:

Het Weer Aktueel

Weather Underground

AWEKAS